Terminal Aerodrome Forecast
Issued by NWS Sterling, VA

Current Version | Previous Version | Text Only | Print | Product List | Glossary On
Versions: 1 2 3 4 5 6 7 8 9 10 11 12 13 14 15 16 17 18 19 20 21
324
FTUS41 KLWX 072336
TAFIAD
TAF
KIAD 072336Z 0800/0906 VRB03KT P6SM SKC
     FM080900 32004KT P6SM BKN030
     FM081500 29006KT P6SM BKN050
     FM081700 28012G19KT P6SM BKN200
     FM082000 30013G25KT P6SM FEW250=

USA.gov is the U.S. government's official web portal to all federal, state and local government web resources and services.